Time,TemperatureF,DewpointF,PressureIn,WindDirection,WindDirectionDegrees,WindSpeedMPH,WindSpeedGustMPH,Humidity,HourlyPrecipIn,Conditions,Clouds,dailyrainin,SoftwareType,DateUTC
2013-05-03 00:00:00,60.4,55.3,29.35,North,0,0.0,0.0,83,0.00,,OVC240,0.00,VWS V14.01,2013-05-03 05:00:00,
2013-05-03 00:07:00,60.3,55.4,29.35,NW,315,1.3,1.3,84,0.00,,OVC240,0.00,VWS V14.01,2013-05-03 05:07:00,
2013-05-03 00:10:00,60.3,55.4,29.35,NW,315,1.3,1.3,84,0.00,,OVC240,0.00,VWS V14.01,2013-05-03 05:10:00,
2013-05-03 00:17:00,59.7,55.2,29.32,NW,315,2.0,2.0,85,0.00,,OVC240,0.00,VWS V14.01,2013-05-03 05:17:00,
2013-05-03 00:20:00,59.7,55.2,29.32,NW,315,2.0,2.0,85,0.00,,OVC240,0.00,VWS V14.01,2013-05-03 05:20:00,
2013-05-03 00:27:00,59.4,55.5,29.32,North,0,2.2,2.2,87,0.00,,OVC240,0.00,VWS V14.01,2013-05-03 05:27:00,
2013-05-03 00:30:00,59.4,55.5,29.32,North,0,2.2,2.2,87,0.00,,OVC240,0.00,VWS V14.01,2013-05-03 05:30:00,
2013-05-03 00:37:00,59.0,55.1,29.32,NW,315,0.0,0.0,87,0.00,,OVC240,0.00,VWS V14.01,2013-05-03 05:37:00,
2013-05-03 00:40:00,59.0,55.1,29.32,NW,315,0.0,0.0,87,0.00,,OVC240,0.00,VWS V14.01,2013-05-03 05:40:00,
2013-05-03 00:57:00,58.6,55.4,29.32,WNW,292,2.0,2.7,89,0.00,,OVC240,0.00,VWS V14.01,2013-05-03 05:57:00,
2013-05-03 01:00:00,58.6,55.4,29.32,WNW,292,2.0,2.7,89,0.00,,OVC240,0.00,VWS V14.01,2013-05-03 06:00:00,
2013-05-03 01:07:00,60.1,56.8,29.32,WNW,292,3.4,3.4,89,0.00,,OVC240,0.00,VWS V14.01,2013-05-03 06:07:00,
2013-05-03 01:10:00,60.1,56.8,29.32,WNW,292,3.4,3.4,89,0.00,,OVC240,0.00,VWS V14.01,2013-05-03 06:10:00,
2013-05-03 01:17:00,60.8,56.6,29.32,SW,225,1.6,2.0,86,0.00,,OVC240,0.00,VWS V14.01,2013-05-03 06:17:00,
2013-05-03 01:20:00,60.8,56.6,29.32,SW,225,1.6,2.0,86,0.00,,OVC240,0.00,VWS V14.01,2013-05-03 06:20:00,
2013-05-03 01:28:00,61.2,56.3,29.32,West,270,2.9,2.9,84,0.00,,OVC240,0.00,VWS V14.01,2013-05-03 06:28:00,
2013-05-03 01:30:00,61.2,56.3,29.32,West,270,2.9,2.9,84,0.00,,OVC240,0.00,VWS V14.01,2013-05-03 06:30:00,
2013-05-03 01:38:00,62.1,56.2,29.32,WNW,292,1.6,1.6,81,0.00,,OVC240,0.00,VWS V14.01,2013-05-03 06:38:00,
2013-05-03 01:40:00,62.1,56.2,29.32,WNW,292,1.6,1.6,81,0.00,,OVC240,0.00,VWS V14.01,2013-05-03 06:40:00,
2013-05-03 01:47:00,62.1,55.8,29.32,West,270,1.6,1.6,80,0.00,,OVC240,0.00,VWS V14.01,2013-05-03 06:47:00,
2013-05-03 01:50:00,62.1,55.8,29.32,West,270,1.6,1.6,80,0.00,,OVC240,0.00,VWS V14.01,2013-05-03 06:50:00,
2013-05-03 02:07:00,61.7,55.5,29.32,WNW,292,3.4,3.4,80,0.00,,OVC240,0.00,VWS V14.01,2013-05-03 07:07:00,
2013-05-03 02:10:00,61.7,55.5,29.32,WNW,292,3.4,3.4,80,0.00,,OVC240,0.00,VWS V14.01,2013-05-03 07:10:00,
2013-05-03 02:17:00,61.2,55.0,29.32,NW,315,2.7,2.7,80,0.00,,OVC240,0.00,VWS V14.01,2013-05-03 07:17:00,
2013-05-03 02:20:00,61.2,55.0,29.32,NW,315,2.7,2.7,80,0.00,,OVC240,0.00,VWS V14.01,2013-05-03 07:20:00,
2013-05-03 02:28:00,61.0,55.1,29.29,North,0,2.2,2.2,81,0.00,,OVC240,0.00,VWS V14.01,2013-05-03 07:28:00,
2013-05-03 02:30:00,61.0,55.1,29.29,North,0,2.2,2.2,81,0.00,,OVC240,0.00,VWS V14.01,2013-05-03 07:30:00,
2013-05-03 02:37:00,61.3,55.5,29.29,SW,225,2.2,2.2,81,0.00,,OVC240,0.00,VWS V14.01,2013-05-03 07:37:00,
2013-05-03 02:40:00,61.3,55.5,29.29,SW,225,2.2,2.2,81,0.00,,OVC240,0.00,VWS V14.01,2013-05-03 07:40:00,
2013-05-03 02:47:00,61.0,55.1,29.29,WNW,292,2.9,2.9,81,0.00,,OVC240,0.00,VWS V14.01,2013-05-03 07:47:00,
2013-05-03 02:50:00,61.0,55.1,29.29,WNW,292,2.9,2.9,81,0.00,,OVC240,0.00,VWS V14.01,2013-05-03 07:50:00,
2013-05-03 02:57:00,61.5,55.6,29.29,WNW,292,1.6,2.0,81,0.00,,OVC240,0.00,VWS V14.01,2013-05-03 07:57:00,
2013-05-03 03:00:00,61.5,55.6,29.29,WNW,292,1.6,2.0,81,0.00,,OVC240,0.00,VWS V14.01,2013-05-03 08:00:00,
2013-05-03 03:07:00,61.7,55.5,29.29,NE,45,1.6,2.0,80,0.00,,OVC240,0.00,VWS V14.01,2013-05-03 08:07:00,
2013-05-03 03:10:00,61.7,55.5,29.29,NE,45,1.6,2.0,80,0.00,,OVC240,0.00,VWS V14.01,2013-05-03 08:10:00,
2013-05-03 03:18:00,61.7,55.5,29.29,NW,315,1.3,1.3,80,0.00,,OVC240,0.00,VWS V14.01,2013-05-03 08:18:00,
2013-05-03 03:20:00,61.7,55.5,29.29,NW,315,1.3,1.3,80,0.00,,OVC240,0.00,VWS V14.01,2013-05-03 08:20:00,
2013-05-03 03:27:00,61.5,56.0,29.29,West,270,0.9,1.1,82,0.00,,OVC240,0.00,VWS V14.01,2013-05-03 08:27:00,
2013-05-03 03:30:00,61.5,56.0,29.29,West,270,0.9,1.1,82,0.00,,OVC240,0.00,VWS V14.01,2013-05-03 08:30:00,
2013-05-03 03:37:00,61.3,55.8,29.29,West,270,2.5,2.5,82,0.00,,OVC240,0.00,VWS V14.01,2013-05-03 08:37:00,
2013-05-03 03:40:00,61.3,55.8,29.29,West,270,2.5,2.5,82,0.00,,OVC240,0.00,VWS V14.01,2013-05-03 08:40:00,
2013-05-03 03:47:00,61.7,56.2,29.29,West,270,1.6,2.0,82,0.00,,OVC240,0.00,VWS V14.01,2013-05-03 08:47:00,
2013-05-03 03:50:00,61.7,56.2,29.29,West,270,1.6,2.0,82,0.00,,OVC240,0.00,VWS V14.01,2013-05-03 08:50:00,
2013-05-03 03:57:00,61.9,56.0,29.29,NW,315,3.1,3.1,81,0.00,,OVC240,0.00,VWS V14.01,2013-05-03 08:57:00,
2013-05-03 04:00:00,61.9,56.0,29.29,NW,315,3.1,3.1,81,0.00,,OVC240,0.00,VWS V14.01,2013-05-03 09:00:00,
2013-05-03 04:08:00,61.7,55.8,29.29,WNW,292,1.6,2.0,81,0.00,,OVC240,0.00,VWS V14.01,2013-05-03 09:08:00,
2013-05-03 04:10:00,61.7,55.8,29.29,WNW,292,1.6,2.0,81,0.00,,OVC240,0.00,VWS V14.01,2013-05-03 09:10:00,
2013-05-03 04:17:00,61.0,55.5,29.26,WNW,292,0.0,0.9,82,0.00,,OVC240,0.00,VWS V14.01,2013-05-03 09:17:00,
2013-05-03 04:20:00,61.0,55.5,29.26,WNW,292,0.0,0.9,82,0.00,,OVC240,0.00,VWS V14.01,2013-05-03 09:20:00,
2013-05-03 04:27:00,60.3,55.1,29.26,NNW,338,1.3,1.3,83,0.00,,OVC240,0.00,VWS V14.01,2013-05-03 09:27:00,
2013-05-03 04:30:00,60.3,55.1,29.26,NNW,338,1.3,1.3,83,0.00,,OVC240,0.00,VWS V14.01,2013-05-03 09:30:00,
2013-05-03 04:37:00,59.5,54.7,29.26,NNW,338,0.0,0.0,84,0.00,,OVC240,0.00,VWS V14.01,2013-05-03 09:37:00,
2013-05-03 04:40:00,59.5,54.7,29.26,NNW,338,0.0,0.0,84,0.00,,OVC240,0.00,VWS V14.01,2013-05-03 09:40:00,
2013-05-03 04:47:00,59.2,54.7,29.29,West,270,3.4,3.6,85,0.00,,OVC240,0.00,VWS V14.01,2013-05-03 09:47:00,
2013-05-03 04:50:00,59.2,54.7,29.29,West,270,3.4,3.6,85,0.00,,OVC240,0.00,VWS V14.01,2013-05-03 09:50:00,
2013-05-03 04:57:00,59.4,55.5,29.29,North,0,3.1,3.1,87,0.00,,OVC240,0.00,VWS V14.01,2013-05-03 09:57:00,
2013-05-03 05:00:00,59.4,55.5,29.29,North,0,3.1,3.1,87,0.00,,OVC240,0.00,VWS V14.01,2013-05-03 10:00:00,
2013-05-03 05:07:00,59.2,55.3,29.29,WNW,292,2.0,2.0,87,0.00,,OVC240,0.00,VWS V14.01,2013-05-03 10:07:00,
2013-05-03 05:10:00,59.2,55.3,29.29,WNW,292,2.0,2.0,87,0.00,,OVC240,0.00,VWS V14.01,2013-05-03 10:10:00,
2013-05-03 05:17:00,58.8,55.3,29.29,SW,225,1.1,1.6,88,0.00,,OVC240,0.00,VWS V14.01,2013-05-03 10:17:00,
2013-05-03 05:20:00,58.8,55.3,29.29,SW,225,1.1,1.6,88,0.00,,OVC240,0.00,VWS V14.01,2013-05-03 10:20:00,
2013-05-03 05:27:00,58.8,55.3,29.29,NNW,338,1.6,1.6,88,0.00,,OVC240,0.00,VWS V14.01,2013-05-03 10:27:00,
2013-05-03 05:30:00,58.8,55.3,29.29,NNW,338,1.6,1.6,88,0.00,,OVC240,0.00,VWS V14.01,2013-05-03 10:30:00,
2013-05-03 05:37:00,59.4,56.1,29.29,ENE,68,1.1,1.3,89,0.00,,OVC240,0.00,VWS V14.01,2013-05-03 10:37:00,
2013-05-03 05:40:00,59.4,56.1,29.29,ENE,68,1.1,1.3,89,0.00,,OVC240,0.00,VWS V14.01,2013-05-03 10:40:00,
2013-05-03 05:47:00,59.7,55.8,29.29,NW,315,0.0,0.0,87,0.00,,OVC240,0.00,VWS V14.01,2013-05-03 10:47:00,
2013-05-03 05:50:00,59.7,55.8,29.29,NW,315,0.0,0.0,87,0.00,,OVC240,0.00,VWS V14.01,2013-05-03 10:50:00,
2013-05-03 05:57:00,59.5,55.7,29.29,North,0,1.3,1.3,87,0.00,,OVC240,0.00,VWS V14.01,2013-05-03 10:57:00,
2013-05-03 06:00:00,59.5,55.7,29.29,North,0,1.3,1.3,87,0.00,,OVC240,0.00,VWS V14.01,2013-05-03 11:00:00,
2013-05-03 06:08:00,59.7,56.2,29.29,NNW,338,0.9,0.9,88,0.00,,OVC240,0.00,VWS V14.01,2013-05-03 11:08:00,
2013-05-03 06:10:00,59.7,56.2,29.29,NNW,338,0.9,0.9,88,0.00,,OVC240,0.00,VWS V14.01,2013-05-03 11:10:00,
2013-05-03 06:17:00,60.4,56.6,29.29,NNE,22,2.0,2.5,87,0.00,,OVC240,0.00,VWS V14.01,2013-05-03 11:17:00,
2013-05-03 06:20:00,60.4,56.6,29.29,NNE,22,2.0,2.5,87,0.00,,OVC240,0.00,VWS V14.01,2013-05-03 11:20:00,
2013-05-03 06:28:00,60.8,56.6,29.29,NE,45,0.0,0.9,86,0.00,,OVC240,0.00,VWS V14.01,2013-05-03 11:28:00,
2013-05-03 06:30:00,60.8,56.6,29.29,NE,45,0.0,0.9,86,0.00,,OVC240,0.00,VWS V14.01,2013-05-03 11:30:00,
2013-05-03 06:37:00,60.8,56.6,29.29,NE,45,3.1,3.4,86,0.00,,OVC240,0.00,VWS V14.01,2013-05-03 11:37:00,
2013-05-03 06:40:00,60.8,56.6,29.29,NE,45,3.1,3.4,86,0.00,,OVC240,0.00,VWS V14.01,2013-05-03 11:40:00,
2013-05-03 06:48:00,61.2,56.6,29.29,South,180,0.9,1.6,85,0.00,,OVC240,0.00,VWS V14.01,2013-05-03 11:48:00,
2013-05-03 06:50:00,61.2,56.6,29.29,South,180,0.9,1.6,85,0.00,,OVC240,0.00,VWS V14.01,2013-05-03 11:50:00,
2013-05-03 06:57:00,61.5,57.0,29.29,North,0,1.1,1.3,85,0.00,,OVC240,0.00,VWS V14.01,2013-05-03 11:57:00,
2013-05-03 07:00:00,61.5,57.0,29.29,North,0,1.1,1.3,85,0.00,,OVC240,0.00,VWS V14.01,2013-05-03 12:00:00,
2013-05-03 07:07:00,61.9,56.7,29.29,NE,45,0.0,0.0,83,0.00,,OVC240,0.00,VWS V14.01,2013-05-03 12:07:00,
2013-05-03 07:10:00,61.9,56.7,29.29,NE,45,0.0,0.0,83,0.00,,OVC240,0.00,VWS V14.01,2013-05-03 12:10:00,
2013-05-03 07:17:00,62.1,57.5,29.29,NE,45,0.0,0.0,85,0.00,,OVC240,0.00,VWS V14.01,2013-05-03 12:17:00,
2013-05-03 07:20:00,62.1,57.5,29.29,NE,45,0.0,0.0,85,0.00,,OVC240,0.00,VWS V14.01,2013-05-03 12:20:00,
2013-05-03 07:28:00,62.2,57.7,29.29,NW,315,1.3,1.3,85,0.00,,OVC240,0.00,VWS V14.01,2013-05-03 12:28:00,
2013-05-03 07:30:00,62.2,57.7,29.29,NW,315,1.3,1.3,85,0.00,,OVC240,0.00,VWS V14.01,2013-05-03 12:30:00,
2013-05-03 07:37:00,62.2,57.7,29.29,NNW,338,1.3,2.2,85,0.00,,OVC240,0.00,VWS V14.01,2013-05-03 12:37:00,
2013-05-03 07:40:00,62.2,57.7,29.29,NNW,338,1.3,2.2,85,0.00,,OVC240,0.00,VWS V14.01,2013-05-03 12:40:00,
2013-05-03 07:47:00,62.6,57.0,29.29,North,0,1.6,1.6,82,0.00,,OVC240,0.00,VWS V14.01,2013-05-03 12:47:00,
2013-05-03 07:50:00,62.6,57.0,29.29,North,0,1.6,1.6,82,0.00,,OVC240,0.00,VWS V14.01,2013-05-03 12:50:00,
2013-05-03 07:57:00,63.0,57.0,29.32,NW,315,0.0,0.0,81,0.00,,OVC240,0.00,VWS V14.01,2013-05-03 12:57:00,
2013-05-03 08:00:00,63.0,57.0,29.32,NW,315,0.0,0.0,81,0.00,,OVC240,0.00,VWS V14.01,2013-05-03 13:00:00,
2013-05-03 08:08:00,64.9,59.3,29.32,SE,135,2.0,2.0,82,0.00,,OVC240,0.00,VWS V14.01,2013-05-03 13:08:00,
2013-05-03 08:10:00,64.9,59.3,29.32,SE,135,2.0,2.0,82,0.00,,OVC240,0.00,VWS V14.01,2013-05-03 13:10:00,
2013-05-03 08:17:00,65.7,57.9,29.29,ENE,68,2.7,2.7,76,0.00,,OVC240,0.00,VWS V14.01,2013-05-03 13:17:00,
2013-05-03 08:20:00,65.7,57.9,29.29,ENE,68,2.7,2.7,76,0.00,,OVC240,0.00,VWS V14.01,2013-05-03 13:20:00,
2013-05-03 08:27:00,67.1,58.2,29.29,SE,135,1.6,1.6,73,0.00,,OVC240,0.00,VWS V14.01,2013-05-03 13:27:00,
2013-05-03 08:30:00,67.1,58.2,29.29,SE,135,1.6,1.6,73,0.00,,OVC240,0.00,VWS V14.01,2013-05-03 13:30:00,
2013-05-03 08:37:00,70.9,59.0,29.29,SSE,158,3.6,3.6,66,0.00,,OVC240,0.00,VWS V14.01,2013-05-03 13:37:00,
2013-05-03 08:40:00,70.9,59.0,29.29,SSE,158,3.6,3.6,66,0.00,,OVC240,0.00,VWS V14.01,2013-05-03 13:40:00,
2013-05-03 08:47:00,72.1,58.0,29.29,NE,45,2.2,3.8,61,0.00,,OVC240,0.00,VWS V14.01,2013-05-03 13:47:00,
2013-05-03 08:50:00,72.1,58.0,29.29,NE,45,2.2,3.8,61,0.00,,OVC240,0.00,VWS V14.01,2013-05-03 13:50:00,
2013-05-03 08:57:00,70.2,55.6,29.29,South,180,2.0,2.0,60,0.00,,OVC240,0.00,VWS V14.01,2013-05-03 13:57:00,
2013-05-03 09:00:00,70.2,55.6,29.29,South,180,2.0,2.0,60,0.00,,OVC240,0.00,VWS V14.01,2013-05-03 14:00:00,
2013-05-03 09:07:00,69.3,55.2,29.29,West,270,1.6,1.6,61,0.00,,OVC240,0.00,VWS V14.01,2013-05-03 14:07:00,
2013-05-03 09:10:00,69.3,55.2,29.29,West,270,1.6,1.6,61,0.00,,OVC240,0.00,VWS V14.01,2013-05-03 14:10:00,
2013-05-03 09:17:00,68.5,54.6,29.29,West,270,5.6,6.0,61,0.00,,OVC240,0.00,VWS V14.01,2013-05-03 14:17:00,
2013-05-03 09:20:00,68.5,54.6,29.29,West,270,5.6,6.0,61,0.00,,OVC240,0.00,VWS V14.01,2013-05-03 14:20:00,
2013-05-03 09:27:00,68.7,55.6,29.29,SE,135,3.8,4.9,63,0.00,,OVC240,0.00,VWS V14.01,2013-05-03 14:27:00,
2013-05-03 09:30:00,68.7,55.6,29.29,SE,135,3.8,4.9,63,0.00,,OVC240,0.00,VWS V14.01,2013-05-03 14:30:00,
2013-05-03 09:37:00,68.9,55.4,29.29,SE,135,4.0,4.0,62,0.00,,OVC240,0.00,VWS V14.01,2013-05-03 14:37:00,
2013-05-03 09:40:00,68.9,55.4,29.29,SE,135,4.0,4.0,62,0.00,,OVC240,0.00,VWS V14.01,2013-05-03 14:40:00,
2013-05-03 09:48:00,70.0,54.5,29.29,East,90,2.5,2.5,58,0.00,,OVC240,0.00,VWS V14.01,2013-05-03 14:48:00,
2013-05-03 09:50:00,70.0,54.5,29.29,East,90,2.5,2.5,58,0.00,,OVC240,0.00,VWS V14.01,2013-05-03 14:50:00,
2013-05-03 09:58:00,70.9,55.4,29.29,ESE,112,6.3,6.3,58,0.00,,OVC240,0.00,VWS V14.01,2013-05-03 14:58:00,
2013-05-03 10:00:00,70.9,55.4,29.29,ESE,112,6.3,6.3,58,0.00,,OVC240,0.00,VWS V14.01,2013-05-03 15:00:00,
2013-05-03 10:07:00,71.2,53.8,29.29,SE,135,4.0,4.9,54,0.00,,OVC240,0.00,VWS V14.01,2013-05-03 15:07:00,
2013-05-03 10:10:00,71.2,53.8,29.29,SE,135,4.0,4.9,54,0.00,,OVC240,0.00,VWS V14.01,2013-05-03 15:10:00,
2013-05-03 10:17:00,71.8,54.8,29.29,SSW,202,2.5,2.9,55,0.00,,OVC240,0.00,VWS V14.01,2013-05-03 15:17:00,
2013-05-03 10:20:00,71.8,54.8,29.29,SSW,202,2.5,2.9,55,0.00,,OVC240,0.00,VWS V14.01,2013-05-03 15:20:00,
2013-05-03 10:27:00,71.8,53.8,29.29,West,270,2.0,2.5,53,0.00,,OVC240,0.00,VWS V14.01,2013-05-03 15:27:00,
2013-05-03 10:30:00,71.8,53.8,29.29,West,270,2.0,2.5,53,0.00,,OVC240,0.00,VWS V14.01,2013-05-03 15:30:00,
2013-05-03 10:48:00,73.0,53.9,29.29,South,180,5.4,5.8,51,0.00,,OVC240,0.00,VWS V14.01,2013-05-03 15:48:00,
2013-05-03 10:50:00,73.0,53.9,29.29,South,180,5.4,5.8,51,0.00,,OVC240,0.00,VWS V14.01,2013-05-03 15:50:00,
2013-05-03 10:57:00,72.7,53.5,29.29,East,90,2.0,2.2,51,0.00,,OVC240,0.00,VWS V14.01,2013-05-03 15:57:00,
2013-05-03 11:00:00,72.7,53.5,29.29,East,90,2.0,2.2,51,0.00,,OVC240,0.00,VWS V14.01,2013-05-03 16:00:00,
2013-05-03 11:07:00,72.7,53.0,29.29,SE,135,4.9,8.5,50,0.00,,OVC240,0.00,VWS V14.01,2013-05-03 16:07:00,
2013-05-03 11:10:00,72.7,53.0,29.29,SE,135,4.9,8.5,50,0.00,,OVC240,0.00,VWS V14.01,2013-05-03 16:10:00,
2013-05-03 11:17:00,73.0,54.4,29.26,NNE,22,2.7,2.7,52,0.00,,OVC240,0.00,VWS V14.01,2013-05-03 16:17:00,
2013-05-03 11:20:00,73.0,54.4,29.26,NNE,22,2.7,2.7,52,0.00,,OVC240,0.00,VWS V14.01,2013-05-03 16:20:00,
2013-05-03 11:27:00,74.5,54.6,29.26,SE,135,4.5,4.5,50,0.00,,OVC240,0.00,VWS V14.01,2013-05-03 16:27:00,
2013-05-03 11:30:00,74.5,54.6,29.26,SE,135,4.5,4.5,50,0.00,,OVC240,0.00,VWS V14.01,2013-05-03 16:30:00,
2013-05-03 11:38:00,74.3,53.4,29.26,SSE,158,5.8,5.8,48,0.00,,OVC240,0.00,VWS V14.01,2013-05-03 16:38:00,
2013-05-03 11:40:00,74.3,53.4,29.26,SSE,158,5.8,5.8,48,0.00,,OVC240,0.00,VWS V14.01,2013-05-03 16:40:00,
2013-05-03 11:47:00,73.2,52.9,29.26,SE,135,5.4,5.4,49,0.00,,OVC240,0.00,VWS V14.01,2013-05-03 16:47:00,
2013-05-03 11:50:00,73.2,52.9,29.26,SE,135,5.4,5.4,49,0.00,,OVC240,0.00,VWS V14.01,2013-05-03 16:50:00,
2013-05-03 11:57:00,72.5,52.3,29.26,SW,225,5.6,5.6,49,0.00,,OVC240,0.00,VWS V14.01,2013-05-03 16:57:00,
2013-05-03 12:00:00,72.5,52.3,29.26,SW,225,5.6,5.6,49,0.00,,OVC240,0.00,VWS V14.01,2013-05-03 17:00:00,
2013-05-03 12:07:00,71.2,51.7,29.26,South,180,2.5,2.5,50,0.00,,OVC240,0.00,VWS V14.01,2013-05-03 17:07:00,
2013-05-03 12:10:00,71.2,51.7,29.26,South,180,2.5,2.5,50,0.00,,OVC240,0.00,VWS V14.01,2013-05-03 17:10:00,
2013-05-03 12:17:00,71.2,51.7,29.26,South,180,3.6,3.6,50,0.00,,OVC240,0.00,VWS V14.01,2013-05-03 17:17:00,
2013-05-03 12:20:00,71.2,51.7,29.26,South,180,3.6,3.6,50,0.00,,OVC240,0.00,VWS V14.01,2013-05-03 17:20:00,
2013-05-03 12:27:00,72.1,52.5,29.26,East,90,3.4,4.0,50,0.00,,OVC240,0.00,VWS V14.01,2013-05-03 17:27:00,
2013-05-03 12:30:00,72.1,52.5,29.26,East,90,3.4,4.0,50,0.00,,OVC240,0.00,VWS V14.01,2013-05-03 17:30:00,
2013-05-03 12:38:00,73.4,53.1,29.26,NE,45,2.9,2.9,49,0.00,,OVC240,0.00,VWS V14.01,2013-05-03 17:38:00,
2013-05-03 12:40:00,73.4,53.1,29.26,NE,45,2.9,2.9,49,0.00,,OVC240,0.00,VWS V14.01,2013-05-03 17:40:00,
2013-05-03 12:47:00,74.5,54.6,29.26,South,180,1.6,2.2,50,0.00,,OVC240,0.00,VWS V14.01,2013-05-03 17:47:00,
2013-05-03 12:50:00,74.5,54.6,29.26,South,180,1.6,2.2,50,0.00,,OVC240,0.00,VWS V14.01,2013-05-03 17:50:00,
2013-05-03 12:57:00,73.0,52.2,29.29,East,90,4.0,4.0,48,0.00,,OVC240,0.00,VWS V14.01,2013-05-03 17:57:00,
2013-05-03 13:00:00,73.0,52.2,29.29,East,90,4.0,4.0,48,0.00,,OVC240,0.00,VWS V14.01,2013-05-03 18:00:00,
2013-05-03 13:07:00,73.6,52.7,29.29,South,180,7.2,13.2,48,0.00,,OVC240,0.00,VWS V14.01,2013-05-03 18:07:00,
2013-05-03 13:10:00,73.6,52.7,29.29,South,180,7.2,13.2,48,0.00,,OVC240,0.00,VWS V14.01,2013-05-03 18:10:00,
2013-05-03 13:17:00,73.4,52.5,29.26,SE,135,4.3,4.3,48,0.00,,OVC240,0.00,VWS V14.01,2013-05-03 18:17:00,
2013-05-03 13:20:00,73.4,52.5,29.26,SE,135,4.3,4.3,48,0.00,,OVC240,0.00,VWS V14.01,2013-05-03 18:20:00,
2013-05-03 13:27:00,72.1,52.5,29.26,SW,225,6.0,6.0,50,0.00,,OVC240,0.00,VWS V14.01,2013-05-03 18:27:00,
2013-05-03 13:30:00,72.1,52.5,29.26,SW,225,6.0,6.0,50,0.00,,OVC240,0.00,VWS V14.01,2013-05-03 18:30:00,
2013-05-03 13:37:00,71.8,53.2,29.26,NE,45,2.0,3.8,52,0.00,,OVC240,0.00,VWS V14.01,2013-05-03 18:37:00,
2013-05-03 13:40:00,71.8,53.2,29.26,NE,45,2.0,3.8,52,0.00,,OVC240,0.00,VWS V14.01,2013-05-03 18:40:00,
2013-05-03 13:47:00,72.1,53.6,29.26,South,180,5.8,6.3,52,0.00,,OVC240,0.00,VWS V14.01,2013-05-03 18:47:00,
2013-05-03 13:50:00,72.1,53.6,29.26,South,180,5.8,6.3,52,0.00,,OVC240,0.00,VWS V14.01,2013-05-03 18:50:00,
2013-05-03 13:57:00,70.5,53.1,29.23,WSW,248,6.0,6.0,54,0.00,,OVC240,0.00,VWS V14.01,2013-05-03 18:57:00,
2013-05-03 14:00:00,70.5,53.1,29.23,WSW,248,6.0,6.0,54,0.00,,OVC240,0.00,VWS V14.01,2013-05-03 19:00:00,
2013-05-03 14:07:00,69.3,52.9,29.23,East,90,3.8,4.7,56,0.00,,OVC240,0.00,VWS V14.01,2013-05-03 19:07:00,
2013-05-03 14:10:00,69.3,52.9,29.23,East,90,3.8,4.7,56,0.00,,OVC240,0.00,VWS V14.01,2013-05-03 19:10:00,
2013-05-03 14:17:00,68.2,52.9,29.26,ENE,68,2.7,2.9,58,0.00,,OVC240,0.00,VWS V14.01,2013-05-03 19:17:00,
2013-05-03 14:20:00,68.2,52.9,29.26,ENE,68,2.7,2.9,58,0.00,,OVC240,0.00,VWS V14.01,2013-05-03 19:20:00,
2013-05-03 14:27:00,68.0,53.6,29.26,SE,135,1.6,2.7,60,0.00,,OVC240,0.00,VWS V14.01,2013-05-03 19:27:00,
2013-05-03 14:30:00,68.0,53.6,29.26,SE,135,1.6,2.7,60,0.00,,OVC240,0.00,VWS V14.01,2013-05-03 19:30:00,
2013-05-03 14:37:00,67.1,55.0,29.26,NW,315,0.9,1.3,65,0.00,,OVC240,0.00,VWS V14.01,2013-05-03 19:37:00,
2013-05-03 14:40:00,67.1,55.0,29.26,NW,315,0.9,1.3,65,0.00,,OVC240,0.00,VWS V14.01,2013-05-03 19:40:00,
2013-05-03 14:47:00,66.2,54.9,29.26,SSW,202,6.0,6.0,67,0.00,,OVC240,0.00,VWS V14.01,2013-05-03 19:47:00,
2013-05-03 14:50:00,66.2,54.9,29.26,SSW,202,6.0,6.0,67,0.00,,OVC240,0.00,VWS V14.01,2013-05-03 19:50:00,
2013-05-03 14:57:00,66.0,55.2,29.26,NE,45,2.7,2.7,68,0.00,,OVC240,0.00,VWS V14.01,2013-05-03 19:57:00,
2013-05-03 15:00:00,66.0,55.2,29.26,NE,45,2.7,2.7,68,0.00,,OVC240,0.00,VWS V14.01,2013-05-03 20:00:00,
2013-05-03 15:07:00,66.0,56.0,29.26,ESE,112,4.3,5.4,70,0.00,,OVC240,0.00,VWS V14.01,2013-05-03 20:07:00,
2013-05-03 15:10:00,66.0,56.0,29.26,ESE,112,4.3,5.4,70,0.00,,OVC240,0.00,VWS V14.01,2013-05-03 20:10:00,
2013-05-03 15:17:00,66.6,56.1,29.26,SE,135,1.1,1.1,69,0.00,,OVC240,0.00,VWS V14.01,2013-05-03 20:17:00,
2013-05-03 15:20:00,66.6,56.1,29.26,SE,135,1.1,1.1,69,0.00,,OVC240,0.00,VWS V14.01,2013-05-03 20:20:00,
2013-05-03 15:27:00,66.2,55.7,29.26,South,180,2.7,2.9,69,0.00,,OVC240,0.00,VWS V14.01,2013-05-03 20:27:00,
2013-05-03 15:30:00,66.2,55.7,29.26,South,180,2.7,2.9,69,0.00,,OVC240,0.00,VWS V14.01,2013-05-03 20:30:00,
2013-05-03 15:37:00,65.7,55.6,29.26,SE,135,0.0,1.3,70,0.00,,OVC240,0.00,VWS V14.01,2013-05-03 20:37:00,
2013-05-03 15:40:00,65.7,55.6,29.26,SE,135,0.0,1.3,70,0.00,,OVC240,0.00,VWS V14.01,2013-05-03 20:40:00,
2013-05-03 15:47:00,65.5,55.5,29.23,SSW,202,2.7,2.9,70,0.00,,OVC240,0.00,VWS V14.01,2013-05-03 20:47:00,
2013-05-03 15:50:00,65.5,55.5,29.23,SSW,202,2.7,2.9,70,0.00,,OVC240,0.00,VWS V14.01,2013-05-03 20:50:00,
2013-05-03 16:07:00,66.2,56.5,29.23,SE,135,3.1,3.1,71,0.00,,OVC240,0.00,VWS V14.01,2013-05-03 21:07:00,
2013-05-03 16:10:00,66.2,56.5,29.23,SE,135,3.1,3.1,71,0.00,,OVC240,0.00,VWS V14.01,2013-05-03 21:10:00,
2013-05-03 16:17:00,66.4,56.3,29.23,ESE,112,1.6,3.1,70,0.00,,OVC240,0.00,VWS V14.01,2013-05-03 21:17:00,
2013-05-03 16:20:00,66.4,56.3,29.23,ESE,112,1.6,3.1,70,0.00,,OVC240,0.00,VWS V14.01,2013-05-03 21:20:00,
2013-05-03 16:27:00,67.1,56.6,29.20,WNW,292,3.6,4.9,69,0.00,,OVC240,0.00,VWS V14.01,2013-05-03 21:27:00,
2013-05-03 16:30:00,67.1,56.6,29.20,WNW,292,3.6,4.9,69,0.00,,OVC240,0.00,VWS V14.01,2013-05-03 21:30:00,
2013-05-03 16:37:00,66.9,56.0,29.20,ESE,112,3.6,3.6,68,0.00,,OVC240,0.00,VWS V14.01,2013-05-03 21:37:00,
2013-05-03 16:40:00,66.9,56.0,29.20,ESE,112,3.6,3.6,68,0.00,,OVC240,0.00,VWS V14.01,2013-05-03 21:40:00,
2013-05-03 16:47:00,66.9,55.6,29.20,SE,135,3.6,4.3,67,0.00,,OVC240,0.00,VWS V14.01,2013-05-03 21:47:00,
2013-05-03 16:50:00,66.9,55.6,29.20,SE,135,3.6,4.3,67,0.00,,OVC240,0.00,VWS V14.01,2013-05-03 21:50:00,
2013-05-03 16:57:00,66.2,55.3,29.20,WSW,248,5.8,5.8,68,0.00,,OVC240,0.00,VWS V14.01,2013-05-03 21:57:00,
2013-05-03 17:00:00,66.2,55.3,29.20,WSW,248,5.8,5.8,68,0.00,,OVC240,0.00,VWS V14.01,2013-05-03 22:00:00,
2013-05-03 17:07:00,65.7,55.6,29.20,SW,225,4.5,4.5,70,0.00,,OVC240,0.00,VWS V14.01,2013-05-03 22:07:00,
2013-05-03 17:10:00,65.7,55.6,29.20,SW,225,4.5,4.5,70,0.00,,OVC240,0.00,VWS V14.01,2013-05-03 22:10:00,
2013-05-03 17:17:00,65.5,55.5,29.20,SW,225,2.9,2.9,70,0.00,,OVC240,0.00,VWS V14.01,2013-05-03 22:17:00,
2013-05-03 17:20:00,65.5,55.5,29.20,SW,225,2.9,2.9,70,0.00,,OVC240,0.00,VWS V14.01,2013-05-03 22:20:00,
2013-05-03 17:27:00,65.1,55.1,29.20,South,180,3.1,3.1,70,0.00,,OVC240,0.00,VWS V14.01,2013-05-03 22:27:00,
2013-05-03 17:30:00,65.1,55.1,29.20,South,180,3.1,3.1,70,0.00,,OVC240,0.00,VWS V14.01,2013-05-03 22:30:00,
2013-05-03 17:37:00,64.8,55.2,29.20,SE,135,3.4,3.4,71,0.00,,OVC240,0.00,VWS V14.01,2013-05-03 22:37:00,
2013-05-03 17:40:00,64.8,55.2,29.20,SE,135,3.4,3.4,71,0.00,,OVC240,0.00,VWS V14.01,2013-05-03 22:40:00,
2013-05-03 17:47:00,64.8,55.2,29.20,NNE,22,2.9,5.6,71,0.00,,OVC240,0.00,VWS V14.01,2013-05-03 22:47:00,
2013-05-03 17:50:00,64.8,55.2,29.20,NNE,22,2.9,5.6,71,0.00,,OVC240,0.00,VWS V14.01,2013-05-03 22:50:00,
2013-05-03 17:57:00,64.9,54.1,29.20,ESE,112,4.0,6.5,68,0.00,,OVC240,0.00,VWS V14.01,2013-05-03 22:57:00,
2013-05-03 18:00:00,64.9,54.1,29.20,ESE,112,4.0,6.5,68,0.00,,OVC240,0.00,VWS V14.01,2013-05-03 23:00:00,
2013-05-03 18:07:00,65.1,53.5,29.20,NE,45,6.5,6.5,66,0.00,,OVC240,0.00,VWS V14.01,2013-05-03 23:07:00,
2013-05-03 18:10:00,65.1,53.5,29.20,NE,45,6.5,6.5,66,0.00,,OVC240,0.00,VWS V14.01,2013-05-03 23:10:00,
2013-05-03 18:17:00,65.3,52.8,29.20,SE,135,6.0,7.6,64,0.00,,OVC240,0.00,VWS V14.01,2013-05-03 23:17:00,
2013-05-03 18:20:00,65.3,52.8,29.20,SE,135,6.0,7.6,64,0.00,,OVC240,0.00,VWS V14.01,2013-05-03 23:20:00,
2013-05-03 18:27:00,65.3,52.8,29.20,East,90,4.3,4.3,64,0.00,,OVC240,0.00,VWS V14.01,2013-05-03 23:27:00,
2013-05-03 18:30:00,65.3,52.8,29.20,East,90,4.3,4.3,64,0.00,,OVC240,0.00,VWS V14.01,2013-05-03 23:30:00,
2013-05-03 18:37:00,64.9,52.9,29.20,SW,225,1.1,2.7,65,0.00,,OVC240,0.00,VWS V14.01,2013-05-03 23:37:00,
2013-05-03 18:40:00,64.9,52.9,29.20,SW,225,1.1,2.7,65,0.00,,OVC240,0.00,VWS V14.01,2013-05-03 23:40:00,
2013-05-03 18:47:00,64.8,53.2,29.20,ESE,112,4.0,4.0,66,0.00,,OVC240,0.00,VWS V14.01,2013-05-03 23:47:00,
2013-05-03 18:50:00,64.8,53.2,29.20,ESE,112,4.0,4.0,66,0.00,,OVC240,0.00,VWS V14.01,2013-05-03 23:50:00,
2013-05-03 18:57:00,64.4,53.2,29.20,SE,135,3.1,5.6,67,0.00,,OVC240,0.00,VWS V14.01,2013-05-03 23:57:00,
2013-05-03 19:00:00,64.4,53.2,29.20,SE,135,3.1,5.6,67,0.00,,OVC240,0.00,VWS V14.01,2013-05-04 00:00:00,
2013-05-03 19:07:00,64.2,53.0,29.20,ESE,112,3.4,3.6,67,0.00,,OVC240,0.00,VWS V14.01,2013-05-04 00:07:00,
2013-05-03 19:10:00,64.2,53.0,29.20,ESE,112,3.4,3.6,67,0.00,,OVC240,0.00,VWS V14.01,2013-05-04 00:10:00,
2013-05-03 19:17:00,64.0,53.3,29.20,SW,225,2.5,2.5,68,0.00,,OVC240,0.00,VWS V14.01,2013-05-04 00:17:00,
2013-05-03 19:20:00,64.0,53.3,29.20,SW,225,2.5,2.5,68,0.00,,OVC240,0.00,VWS V14.01,2013-05-04 00:20:00,
2013-05-03 19:27:00,64.0,53.7,29.23,NE,45,3.1,3.1,69,0.00,,OVC240,0.00,VWS V14.01,2013-05-04 00:27:00,
2013-05-03 19:30:00,64.0,53.7,29.23,NE,45,3.1,3.1,69,0.00,,OVC240,0.00,VWS V14.01,2013-05-04 00:30:00,
2013-05-03 19:37:00,64.0,53.7,29.23,ESE,112,3.8,4.3,69,0.00,,OVC240,0.00,VWS V14.01,2013-05-04 00:37:00,
2013-05-03 19:40:00,64.0,53.7,29.23,ESE,112,3.8,4.3,69,0.00,,OVC240,0.00,VWS V14.01,2013-05-04 00:40:00,
2013-05-03 19:47:00,63.9,53.9,29.20,SSW,202,7.2,7.2,70,0.00,,OVC240,0.00,VWS V14.01,2013-05-04 00:47:00,
2013-05-03 19:50:00,63.9,53.9,29.20,SSW,202,7.2,7.2,70,0.00,,OVC240,0.00,VWS V14.01,2013-05-04 00:50:00,
2013-05-03 19:57:00,63.9,53.9,29.20,South,180,3.4,3.4,70,0.00,,OVC240,0.00,VWS V14.01,2013-05-04 00:57:00,
2013-05-03 20:00:00,63.9,53.9,29.20,South,180,3.4,3.4,70,0.00,,OVC240,0.00,VWS V14.01,2013-05-04 01:00:00,
2013-05-03 20:07:00,63.9,53.9,29.20,ESE,112,3.4,6.0,70,0.00,,OVC240,0.00,VWS V14.01,2013-05-04 01:07:00,
2013-05-03 20:10:00,63.9,53.9,29.20,ESE,112,3.4,6.0,70,0.00,,OVC240,0.00,VWS V14.01,2013-05-04 01:10:00,
2013-05-03 20:17:00,63.9,54.3,29.20,West,270,2.5,3.4,71,0.00,,OVC240,0.00,VWS V14.01,2013-05-04 01:17:00,
2013-05-03 20:20:00,63.9,54.3,29.20,West,270,2.5,3.4,71,0.00,,OVC240,0.00,VWS V14.01,2013-05-04 01:20:00,
2013-05-03 20:27:00,63.5,53.9,29.20,SE,135,5.6,5.6,71,0.00,,OVC240,0.00,VWS V14.01,2013-05-04 01:27:00,
2013-05-03 20:30:00,63.5,53.9,29.20,SE,135,5.6,5.6,71,0.00,,OVC240,0.00,VWS V14.01,2013-05-04 01:30:00,
2013-05-03 20:38:00,63.7,54.1,29.20,SW,225,4.3,8.1,71,0.00,,OVC240,0.00,VWS V14.01,2013-05-04 01:38:00,
2013-05-03 20:40:00,63.7,54.1,29.20,SW,225,4.3,8.1,71,0.00,,OVC240,0.00,VWS V14.01,2013-05-04 01:40:00,
2013-05-03 20:47:00,63.5,53.9,29.20,WSW,248,3.1,3.1,71,0.00,,OVC240,0.00,VWS V14.01,2013-05-04 01:47:00,
2013-05-03 20:50:00,63.5,53.9,29.20,WSW,248,3.1,3.1,71,0.00,,OVC240,0.00,VWS V14.01,2013-05-04 01:50:00,
2013-05-03 20:57:00,63.7,54.1,29.20,SE,135,3.8,6.0,71,0.00,,OVC240,0.00,VWS V14.01,2013-05-04 01:57:00,
2013-05-03 21:00:00,63.7,54.1,29.20,SE,135,3.8,6.0,71,0.00,,OVC240,0.00,VWS V14.01,2013-05-04 02:00:00,
2013-05-03 21:07:00,63.7,54.1,29.20,SSE,158,4.7,7.4,71,0.00,,OVC240,0.00,VWS V14.01,2013-05-04 02:07:00,
2013-05-03 21:10:00,63.7,54.1,29.20,SSE,158,4.7,7.4,71,0.00,,OVC240,0.00,VWS V14.01,2013-05-04 02:10:00,
2013-05-03 21:18:00,63.9,54.3,29.23,South,180,2.5,4.0,71,0.00,,OVC240,0.00,VWS V14.01,2013-05-04 02:18:00,
2013-05-03 21:20:00,63.9,54.3,29.23,South,180,2.5,4.0,71,0.00,,OVC240,0.00,VWS V14.01,2013-05-04 02:20:00,
2013-05-03 21:27:00,63.9,53.9,29.23,SE,135,4.0,4.0,70,0.00,,OVC240,0.00,VWS V14.01,2013-05-04 02:27:00,
2013-05-03 21:30:00,63.9,53.9,29.23,SE,135,4.0,4.0,70,0.00,,OVC240,0.00,VWS V14.01,2013-05-04 02:30:00,
2013-05-03 21:37:00,63.7,54.1,29.23,East,90,8.1,8.1,71,0.00,,OVC240,0.00,VWS V14.01,2013-05-04 02:37:00,
2013-05-03 21:40:00,63.7,54.1,29.23,East,90,8.1,8.1,71,0.00,,OVC240,0.00,VWS V14.01,2013-05-04 02:40:00,
2013-05-03 21:48:00,63.3,54.5,29.20,East,90,5.6,6.5,73,0.00,,OVC240,0.00,VWS V14.01,2013-05-04 02:48:00,
2013-05-03 21:50:00,63.3,54.5,29.20,East,90,5.6,6.5,73,0.00,,OVC240,0.00,VWS V14.01,2013-05-04 02:50:00,
2013-05-03 21:57:00,61.3,55.1,29.20,WSW,248,2.0,3.4,80,0.00,,OVC240,0.00,VWS V14.01,2013-05-04 02:57:00,
2013-05-03 22:00:00,61.3,55.1,29.20,WSW,248,2.0,3.4,80,0.00,,OVC240,0.00,VWS V14.01,2013-05-04 03:00:00,
2013-05-03 22:07:00,60.8,56.3,29.20,ENE,68,3.1,4.9,85,0.00,,OVC240,0.00,VWS V14.01,2013-05-04 03:07:00,
2013-05-03 22:10:00,60.8,56.3,29.20,ENE,68,3.1,4.9,85,0.00,,OVC240,0.00,VWS V14.01,2013-05-04 03:10:00,
2013-05-03 22:17:00,60.4,55.9,29.20,West,270,4.3,4.3,85,0.00,,OVC240,0.00,VWS V14.01,2013-05-04 03:17:00,
2013-05-03 22:20:00,60.4,55.9,29.20,West,270,4.3,4.3,85,0.00,,OVC240,0.00,VWS V14.01,2013-05-04 03:20:00,
2013-05-03 22:27:00,60.1,55.6,29.17,WNW,292,3.1,3.8,85,0.00,,OVC240,0.00,VWS V14.01,2013-05-04 03:27:00,
2013-05-03 22:30:00,60.1,55.6,29.17,WNW,292,3.1,3.8,85,0.00,,OVC240,0.00,VWS V14.01,2013-05-04 03:30:00,
2013-05-03 22:37:00,60.6,55.4,29.17,South,180,4.9,4.9,83,0.00,,OVC240,0.00,VWS V14.01,2013-05-04 03:37:00,
2013-05-03 22:40:00,60.6,55.4,29.17,South,180,4.9,4.9,83,0.00,,OVC240,0.00,VWS V14.01,2013-05-04 03:40:00,
2013-05-03 22:47:00,61.2,55.3,29.20,South,180,3.8,3.8,81,0.00,,OVC240,0.00,VWS V14.01,2013-05-04 03:47:00,
2013-05-03 22:50:00,61.2,55.3,29.20,South,180,3.8,3.8,81,0.00,,OVC240,0.00,VWS V14.01,2013-05-04 03:50:00,
2013-05-03 22:58:00,61.9,54.6,29.23,NW,315,2.9,2.9,77,0.00,,OVC240,0.00,VWS V14.01,2013-05-04 03:58:00,
2013-05-03 23:00:00,61.9,54.6,29.23,NW,315,2.9,2.9,77,0.00,,OVC240,0.00,VWS V14.01,2013-05-04 04:00:00,
2013-05-03 23:07:00,62.2,53.9,29.23,South,180,6.3,6.5,74,0.00,,OVC240,0.00,VWS V14.01,2013-05-04 04:07:00,
2013-05-03 23:10:00,62.2,53.9,29.23,South,180,6.3,6.5,74,0.00,,OVC240,0.00,VWS V14.01,2013-05-04 04:10:00,
2013-05-03 23:17:00,62.4,53.3,29.20,NNE,22,2.5,3.8,72,0.00,,OVC240,0.00,VWS V14.01,2013-05-04 04:17:00,
2013-05-03 23:20:00,62.4,53.3,29.20,NNE,22,2.5,3.8,72,0.00,,OVC240,0.00,VWS V14.01,2013-05-04 04:20:00,
2013-05-03 23:27:00,62.2,53.1,29.17,West,270,5.4,5.4,72,0.00,,OVC240,0.00,VWS V14.01,2013-05-04 04:27:00,
2013-05-03 23:30:00,62.2,53.1,29.17,West,270,5.4,5.4,72,0.00,,OVC240,0.00,VWS V14.01,2013-05-04 04:30:00,
2013-05-03 23:37:00,61.7,53.3,29.17,WNW,292,3.8,4.0,74,0.00,,OVC240,0.00,VWS V14.01,2013-05-04 04:37:00,
2013-05-03 23:40:00,61.7,53.3,29.17,WNW,292,3.8,4.0,74,0.00,,OVC240,0.00,VWS V14.01,2013-05-04 04:40:00,
2013-05-03 23:47:00,59.2,56.0,29.14,SE,135,2.5,3.4,89,0.04,,OVC240,0.04,VWS V14.01,2013-05-04 04:47:00,
2013-05-03 23:50:00,59.2,55.9,29.15,SE,135,2.5,3.4,89,0.04,,OVC240,0.04,VWS V14.01,2013-05-04 04:50:00,
2013-05-03 23:57:00,59.0,55.1,29.14,NNW,338,3.1,3.1,87,0.04,,OVC240,0.00,VWS V14.01,2013-05-04 04:57:00,